sensor_id;sensor_type;location;lat;lon;timestamp;P1;durP1;ratioP1;P2;durP2;ratioP2
211;SDS011;16228;48.800;9.002;2023-04-16T00:00:35;18.17;;;16.37;;
211;SDS011;16228;48.800;9.002;2023-04-16T00:03:20;14.93;;;13.43;;
211;SDS011;16228;48.800;9.002;2023-04-16T00:06:06;15.83;;;12.90;;
211;SDS011;16228;48.800;9.002;2023-04-16T00:08:52;15.33;;;13.83;;
211;SDS011;16228;48.800;9.002;2023-04-16T00:11:39;15.83;;;14.23;;
211;SDS011;16228;48.800;9.002;2023-04-16T00:14:24;13.97;;;12.53;;
211;SDS011;16228;48.800;9.002;2023-04-16T00:17:10;14.60;;;13.20;;
211;SDS011;16228;48.800;9.002;2023-04-16T00:19:55;16.83;;;14.20;;
211;SDS011;16228;48.800;9.002;2023-04-16T00:22:41;12.43;;;11.23;;
211;SDS011;16228;48.800;9.002;2023-04-16T00:25:27;13.87;;;12.47;;
211;SDS011;16228;48.800;9.002;2023-04-16T00:28:14;17.50;;;15.60;;
211;SDS011;16228;48.800;9.002;2023-04-16T00:30:59;14.90;;;13.33;;
211;SDS011;16228;48.800;9.002;2023-04-16T00:33:45;13.70;;;12.37;;
211;SDS011;16228;48.800;9.002;2023-04-16T00:36:31;16.50;;;14.83;;
211;SDS011;16228;48.800;9.002;2023-04-16T00:39:17;13.27;;;11.97;;
211;SDS011;16228;48.800;9.002;2023-04-16T00:42:03;16.00;;;14.23;;
211;SDS011;16228;48.800;9.002;2023-04-16T00:44:50;17.30;;;15.50;;
211;SDS011;16228;48.800;9.002;2023-04-16T00:47:35;15.77;;;13.10;;
211;SDS011;16228;48.800;9.002;2023-04-16T00:50:21;14.23;;;12.83;;
211;SDS011;16228;48.800;9.002;2023-04-16T00:53:07;14.33;;;12.60;;
211;SDS011;16228;48.800;9.002;2023-04-16T00:55:53;15.40;;;13.80;;
211;SDS011;16228;48.800;9.002;2023-04-16T00:58:40;16.63;;;14.27;;
211;SDS011;16228;48.800;9.002;2023-04-16T01:01:27;16.70;;;13.40;;
211;SDS011;16228;48.800;9.002;2023-04-16T01:04:12;14.17;;;12.63;;
211;SDS011;16228;48.800;9.002;2023-04-16T01:06:58;15.33;;;13.73;;
211;SDS011;16228;48.800;9.002;2023-04-16T01:09:44;13.73;;;12.30;;
211;SDS011;16228;48.800;9.002;2023-04-16T01:12:29;15.13;;;13.63;;
211;SDS011;16228;48.800;9.002;2023-04-16T01:15:15;11.10;;;10.10;;
211;SDS011;16228;48.800;9.002;2023-04-16T01:18:02;13.97;;;12.37;;
211;SDS011;16228;48.800;9.002;2023-04-16T01:20:58;12.97;;;11.70;;
211;SDS011;16228;48.800;9.002;2023-04-16T01:23:43;14.20;;;12.70;;
211;SDS011;16228;48.800;9.002;2023-04-16T01:26:29;12.43;;;11.13;;
211;SDS011;16228;48.800;9.002;2023-04-16T01:29:15;13.23;;;10.90;;
211;SDS011;16228;48.800;9.002;2023-04-16T01:32:00;9.80;;;8.97;;
211;SDS011;16228;48.800;9.002;2023-04-16T01:34:46;11.30;;;10.17;;
211;SDS011;16228;48.800;9.002;2023-04-16T01:37:33;13.70;;;12.20;;
211;SDS011;16228;48.800;9.002;2023-04-16T01:40:18;15.53;;;12.33;;
211;SDS011;16228;48.800;9.002;2023-04-16T01:43:04;11.23;;;10.07;;
211;SDS011;16228;48.800;9.002;2023-04-16T01:45:50;10.97;;;9.80;;
211;SDS011;16228;48.800;9.002;2023-04-16T01:48:37;11.97;;;10.67;;
211;SDS011;16228;48.800;9.002;2023-04-16T01:51:23;9.33;;;8.43;;
211;SDS011;16228;48.800;9.002;2023-04-16T01:54:11;11.17;;;10.07;;
211;SDS011;16228;48.800;9.002;2023-04-16T01:56:56;10.80;;;9.73;;
211;SDS011;16228;48.800;9.002;2023-04-16T01:59:42;9.97;;;8.97;;
211;SDS011;16228;48.800;9.002;2023-04-16T02:02:28;14.07;;;11.20;;
211;SDS011;16228;48.800;9.002;2023-04-16T02:05:13;12.27;;;11.10;;
211;SDS011;16228;48.800;9.002;2023-04-16T02:07:59;13.97;;;12.37;;
211;SDS011;16228;48.800;9.002;2023-04-16T02:10:46;13.90;;;12.37;;
211;SDS011;16228;48.800;9.002;2023-04-16T02:13:32;13.10;;;11.37;;
211;SDS011;16228;48.800;9.002;2023-04-16T02:16:17;13.87;;;12.13;;
211;SDS011;16228;48.800;9.002;2023-04-16T02:19:03;11.53;;;10.37;;
211;SDS011;16228;48.800;9.002;2023-04-16T02:21:50;12.20;;;10.63;;
211;SDS011;16228;48.800;9.002;2023-04-16T02:24:35;12.67;;;11.43;;
211;SDS011;16228;48.800;9.002;2023-04-16T02:27:22;14.10;;;12.27;;
211;SDS011;16228;48.800;9.002;2023-04-16T02:30:09;11.30;;;10.17;;
211;SDS011;16228;48.800;9.002;2023-04-16T02:32:55;12.90;;;10.73;;
211;SDS011;16228;48.800;9.002;2023-04-16T02:35:40;12.47;;;10.40;;
211;SDS011;16228;48.800;9.002;2023-04-16T02:38:26;13.30;;;10.50;;
211;SDS011;16228;48.800;9.002;2023-04-16T02:41:12;13.27;;;11.00;;
211;SDS011;16228;48.800;9.002;2023-04-16T02:43:59;12.20;;;9.10;;
211;SDS011;16228;48.800;9.002;2023-04-16T02:46:44;12.80;;;10.90;;
211;SDS011;16228;48.800;9.002;2023-04-16T02:49:30;10.57;;;9.47;;
211;SDS011;16228;48.800;9.002;2023-04-16T02:52:15;11.03;;;9.90;;
211;SDS011;16228;48.800;9.002;2023-04-16T02:55:01;13.00;;;11.60;;
211;SDS011;16228;48.800;9.002;2023-04-16T02:57:47;12.80;;;11.17;;
211;SDS011;16228;48.800;9.002;2023-04-16T03:00:34;13.57;;;11.63;;
211;SDS011;16228;48.800;9.002;2023-04-16T03:03:19;16.77;;;13.30;;
211;SDS011;16228;48.800;9.002;2023-04-16T03:06:05;18.73;;;14.73;;
211;SDS011;16228;48.800;9.002;2023-04-16T03:08:51;15.37;;;13.60;;
211;SDS011;16228;48.800;9.002;2023-04-16T03:11:36;18.43;;;15.30;;
211;SDS011;16228;48.800;9.002;2023-04-16T03:14:22;12.83;;;10.97;;
211;SDS011;16228;48.800;9.002;2023-04-16T03:17:09;14.77;;;12.80;;
211;SDS011;16228;48.800;9.002;2023-04-16T03:19:54;19.33;;;14.97;;
211;SDS011;16228;48.800;9.002;2023-04-16T03:22:40;17.10;;;14.57;;
211;SDS011;16228;48.800;9.002;2023-04-16T03:25:26;13.97;;;11.77;;
211;SDS011;16228;48.800;9.002;2023-04-16T03:28:11;15.47;;;13.20;;
211;SDS011;16228;48.800;9.002;2023-04-16T03:30:57;16.77;;;13.17;;
211;SDS011;16228;48.800;9.002;2023-04-16T03:33:44;21.53;;;14.70;;
211;SDS011;16228;48.800;9.002;2023-04-16T03:36:30;15.57;;;12.87;;
211;SDS011;16228;48.800;9.002;2023-04-16T03:39:16;18.70;;;14.07;;
211;SDS011;16228;48.800;9.002;2023-04-16T03:42:02;16.70;;;13.57;;
211;SDS011;16228;48.800;9.002;2023-04-16T03:44:47;16.07;;;12.97;;
211;SDS011;16228;48.800;9.002;2023-04-16T03:47:33;19.70;;;13.73;;
211;SDS011;16228;48.800;9.002;2023-04-16T03:50:20;15.53;;;13.03;;
211;SDS011;16228;48.800;9.002;2023-04-16T03:53:05;15.83;;;13.27;;
211;SDS011;16228;48.800;9.002;2023-04-16T03:55:51;17.43;;;14.40;;
211;SDS011;16228;48.800;9.002;2023-04-16T03:58:37;21.10;;;15.07;;
211;SDS011;16228;48.800;9.002;2023-04-16T04:01:22;18.47;;;13.23;;
211;SDS011;16228;48.800;9.002;2023-04-16T04:04:08;15.70;;;13.17;;
211;SDS011;16228;48.800;9.002;2023-04-16T04:06:55;16.43;;;12.93;;
211;SDS011;16228;48.800;9.002;2023-04-16T04:09:41;16.23;;;13.00;;
211;SDS011;16228;48.800;9.002;2023-04-16T04:12:26;18.70;;;12.57;;
211;SDS011;16228;48.800;9.002;2023-04-16T04:15:12;13.13;;;11.10;;
211;SDS011;16228;48.800;9.002;2023-04-16T04:17:57;14.07;;;11.53;;
211;SDS011;16228;48.800;9.002;2023-04-16T04:20:43;13.90;;;10.90;;
211;SDS011;16228;48.800;9.002;2023-04-16T04:23:30;15.60;;;10.87;;
211;SDS011;16228;48.800;9.002;2023-04-16T04:26:16;16.60;;;12.57;;
211;SDS011;16228;48.800;9.002;2023-04-16T04:29:01;15.47;;;11.47;;
211;SDS011;16228;48.800;9.002;2023-04-16T04:31:47;17.17;;;12.33;;
211;SDS011;16228;48.800;9.002;2023-04-16T04:34:32;12.43;;;10.97;;
211;SDS011;16228;48.800;9.002;2023-04-16T04:37:18;16.27;;;11.10;;
211;SDS011;16228;48.800;9.002;2023-04-16T04:40:06;15.80;;;11.70;;
211;SDS011;16228;48.800;9.002;2023-04-16T04:42:52;15.13;;;12.13;;
211;SDS011;16228;48.800;9.002;2023-04-16T04:45:38;13.70;;;11.03;;
211;SDS011;16228;48.800;9.002;2023-04-16T04:48:24;13.13;;;10.93;;
211;SDS011;16228;48.800;9.002;2023-04-16T04:51:10;17.00;;;11.87;;
211;SDS011;16228;48.800;9.002;2023-04-16T04:53:55;20.40;;;14.40;;
211;SDS011;16228;48.800;9.002;2023-04-16T04:56:42;14.87;;;12.30;;
211;SDS011;16228;48.800;9.002;2023-04-16T04:59:28;15.00;;;11.43;;
211;SDS011;16228;48.800;9.002;2023-04-16T05:02:14;12.20;;;10.07;;
211;SDS011;16228;48.800;9.002;2023-04-16T05:04:59;11.53;;;9.90;;
211;SDS011;16228;48.800;9.002;2023-04-16T05:07:45;17.40;;;13.17;;
211;SDS011;16228;48.800;9.002;2023-04-16T05:10:31;17.03;;;13.47;;
211;SDS011;16228;48.800;9.002;2023-04-16T05:13:17;18.13;;;14.13;;
211;SDS011;16228;48.800;9.002;2023-04-16T05:16:03;20.77;;;14.83;;
211;SDS011;16228;48.800;9.002;2023-04-16T05:18:49;29.47;;;19.67;;
211;SDS011;16228;48.800;9.002;2023-04-16T05:21:34;25.83;;;19.77;;
211;SDS011;16228;48.800;9.002;2023-04-16T05:24:21;29.27;;;19.90;;
211;SDS011;16228;48.800;9.002;2023-04-16T05:27:06;33.73;;;22.20;;
211;SDS011;16228;48.800;9.002;2023-04-16T05:29:53;36.07;;;25.40;;
211;SDS011;16228;48.800;9.002;2023-04-16T05:32:39;31.43;;;20.60;;
211;SDS011;16228;48.800;9.002;2023-04-16T05:35:24;35.50;;;22.87;;
211;SDS011;16228;48.800;9.002;2023-04-16T05:38:10;39.27;;;24.90;;
211;SDS011;16228;48.800;9.002;2023-04-16T05:40:56;27.57;;;20.70;;
211;SDS011;16228;48.800;9.002;2023-04-16T05:43:42;36.40;;;22.97;;
211;SDS011;16228;48.800;9.002;2023-04-16T05:46:29;31.90;;;22.17;;
211;SDS011;16228;48.800;9.002;2023-04-16T05:49:15;41.47;;;26.10;;
211;SDS011;16228;48.800;9.002;2023-04-16T05:52:01;30.63;;;22.13;;
211;SDS011;16228;48.800;9.002;2023-04-16T05:54:47;30.47;;;22.03;;
211;SDS011;16228;48.800;9.002;2023-04-16T05:57:32;37.13;;;23.33;;
211;SDS011;16228;48.800;9.002;2023-04-16T06:00:18;39.13;;;25.17;;
211;SDS011;16228;48.800;9.002;2023-04-16T06:03:05;37.93;;;24.40;;
211;SDS011;16228;48.800;9.002;2023-04-16T06:05:51;29.73;;;22.30;;
211;SDS011;16228;48.800;9.002;2023-04-16T06:08:36;47.33;;;26.87;;
211;SDS011;16228;48.800;9.002;2023-04-16T06:11:22;39.17;;;24.50;;
211;SDS011;16228;48.800;9.002;2023-04-16T06:14:07;46.67;;;26.03;;
211;SDS011;16228;48.800;9.002;2023-04-16T06:16:54;40.30;;;25.83;;
211;SDS011;16228;48.800;9.002;2023-04-16T06:19:41;48.07;;;28.77;;
211;SDS011;16228;48.800;9.002;2023-04-16T06:22:27;43.20;;;26.43;;
211;SDS011;16228;48.800;9.002;2023-04-16T06:25:13;46.73;;;28.60;;
211;SDS011;16228;48.800;9.002;2023-04-16T06:27:58;48.33;;;29.97;;
211;SDS011;16228;48.800;9.002;2023-04-16T06:30:45;49.97;;;29.87;;
211;SDS011;16228;48.800;9.002;2023-04-16T06:33:30;39.00;;;26.67;;
211;SDS011;16228;48.800;9.002;2023-04-16T06:36:17;57.97;;;31.20;;
211;SDS011;16228;48.800;9.002;2023-04-16T06:39:03;34.93;;;24.57;;
211;SDS011;16228;48.800;9.002;2023-04-16T06:41:48;35.47;;;24.07;;
211;SDS011;16228;48.800;9.002;2023-04-16T06:44:34;32.03;;;23.57;;
211;SDS011;16228;48.800;9.002;2023-04-16T06:47:20;43.90;;;26.43;;
211;SDS011;16228;48.800;9.002;2023-04-16T06:50:06;33.33;;;23.17;;
211;SDS011;16228;48.800;9.002;2023-04-16T06:52:53;39.60;;;25.77;;
211;SDS011;16228;48.800;9.002;2023-04-16T06:55:39;30.33;;;22.90;;
211;SDS011;16228;48.800;9.002;2023-04-16T06:58:25;38.77;;;24.73;;
211;SDS011;16228;48.800;9.002;2023-04-16T07:01:10;37.37;;;23.77;;
211;SDS011;16228;48.800;9.002;2023-04-16T07:03:56;34.43;;;23.57;;
211;SDS011;16228;48.800;9.002;2023-04-16T07:06:42;36.80;;;26.00;;
211;SDS011;16228;48.800;9.002;2023-04-16T07:09:28;34.77;;;23.63;;
211;SDS011;16228;48.800;9.002;2023-04-16T07:12:14;35.03;;;23.93;;
211;SDS011;16228;48.800;9.002;2023-04-16T07:15:00;25.70;;;20.07;;
211;SDS011;16228;48.800;9.002;2023-04-16T07:17:45;30.70;;;22.43;;
211;SDS011;16228;48.800;9.002;2023-04-16T07:20:31;36.43;;;23.17;;
211;SDS011;16228;48.800;9.002;2023-04-16T07:23:16;29.43;;;21.83;;
211;SDS011;16228;48.800;9.002;2023-04-16T07:26:04;33.77;;;22.77;;
211;SDS011;16228;48.800;9.002;2023-04-16T07:28:50;27.60;;;19.87;;
211;SDS011;16228;48.800;9.002;2023-04-16T07:31:35;27.67;;;20.37;;
211;SDS011;16228;48.800;9.002;2023-04-16T07:34:21;24.93;;;18.87;;
211;SDS011;16228;48.800;9.002;2023-04-16T07:37:07;22.73;;;18.03;;
211;SDS011;16228;48.800;9.002;2023-04-16T07:39:52;21.87;;;18.83;;
211;SDS011;16228;48.800;9.002;2023-04-16T07:42:41;24.93;;;19.57;;
211;SDS011;16228;48.800;9.002;2023-04-16T07:45:27;31.63;;;21.87;;
211;SDS011;16228;48.800;9.002;2023-04-16T07:48:12;21.50;;;17.23;;
211;SDS011;16228;48.800;9.002;2023-04-16T07:50:58;21.73;;;17.57;;
211;SDS011;16228;48.800;9.002;2023-04-16T07:53:43;23.40;;;18.53;;
211;SDS011;16228;48.800;9.002;2023-04-16T07:56:29;23.43;;;19.47;;
211;SDS011;16228;48.800;9.002;2023-04-16T07:59:16;21.57;;;17.20;;
211;SDS011;16228;48.800;9.002;2023-04-16T08:02:01;21.93;;;16.27;;
211;SDS011;16228;48.800;9.002;2023-04-16T08:04:48;23.00;;;17.23;;
211;SDS011;16228;48.800;9.002;2023-04-16T08:07:34;25.37;;;19.53;;
211;SDS011;16228;48.800;9.002;2023-04-16T08:10:20;22.97;;;18.10;;
211;SDS011;16228;48.800;9.002;2023-04-16T08:13:05;26.40;;;20.10;;
211;SDS011;16228;48.800;9.002;2023-04-16T08:15:52;19.40;;;16.47;;
211;SDS011;16228;48.800;9.002;2023-04-16T08:18:38;21.40;;;17.10;;
211;SDS011;16228;48.800;9.002;2023-04-16T08:21:23;21.47;;;17.10;;
211;SDS011;16228;48.800;9.002;2023-04-16T08:24:09;23.00;;;16.83;;
211;SDS011;16228;48.800;9.002;2023-04-16T08:26:55;22.87;;;16.17;;
211;SDS011;16228;48.800;9.002;2023-04-16T08:29:40;21.37;;;17.17;;
211;SDS011;16228;48.800;9.002;2023-04-16T08:32:27;18.50;;;15.37;;
211;SDS011;16228;48.800;9.002;2023-04-16T08:35:13;18.33;;;15.33;;
211;SDS011;16228;48.800;9.002;2023-04-16T08:37:58;16.40;;;14.33;;
211;SDS011;16228;48.800;9.002;2023-04-16T08:40:44;18.07;;;15.03;;
211;SDS011;16228;48.800;9.002;2023-04-16T08:43:32;18.30;;;14.53;;
211;SDS011;16228;48.800;9.002;2023-04-16T08:46:18;19.67;;;15.83;;
211;SDS011;16228;48.800;9.002;2023-04-16T08:49:10;16.40;;;13.97;;
211;SDS011;16228;48.800;9.002;2023-04-16T08:52:00;17.73;;;14.83;;
211;SDS011;16228;48.800;9.002;2023-04-16T08:54:55;20.93;;;15.70;;
211;SDS011;16228;48.800;9.002;2023-04-16T08:57:46;17.63;;;14.67;;
211;SDS011;16228;48.800;9.002;2023-04-16T09:00:36;18.07;;;14.27;;
211;SDS011;16228;48.800;9.002;2023-04-16T09:03:23;13.83;;;12.33;;
211;SDS011;16228;48.800;9.002;2023-04-16T09:06:10;18.50;;;14.73;;
211;SDS011;16228;48.800;9.002;2023-04-16T09:08:56;17.90;;;13.87;;
211;SDS011;16228;48.800;9.002;2023-04-16T09:11:48;15.93;;;12.10;;
211;SDS011;16228;48.800;9.002;2023-04-16T09:14:35;21.57;;;14.50;;
211;SDS011;16228;48.800;9.002;2023-04-16T09:17:24;19.07;;;13.33;;
211;SDS011;16228;48.800;9.002;2023-04-16T09:20:10;16.07;;;12.27;;
211;SDS011;16228;48.800;9.002;2023-04-16T09:22:57;17.83;;;13.40;;
211;SDS011;16228;48.800;9.002;2023-04-16T09:25:43;14.97;;;12.87;;
211;SDS011;16228;48.800;9.002;2023-04-16T09:28:38;20.90;;;15.40;;
211;SDS011;16228;48.800;9.002;2023-04-16T09:31:24;18.90;;;14.13;;
211;SDS011;16228;48.800;9.002;2023-04-16T09:34:10;17.70;;;14.27;;
211;SDS011;16228;48.800;9.002;2023-04-16T09:36:55;18.17;;;13.77;;
211;SDS011;16228;48.800;9.002;2023-04-16T09:40:00;19.50;;;14.07;;
211;SDS011;16228;48.800;9.002;2023-04-16T09:42:47;19.13;;;14.20;;
211;SDS011;16228;48.800;9.002;2023-04-16T09:45:39;20.27;;;15.40;;
211;SDS011;16228;48.800;9.002;2023-04-16T09:48:32;21.27;;;15.17;;
211;SDS011;16228;48.800;9.002;2023-04-16T09:51:18;21.27;;;15.20;;
211;SDS011;16228;48.800;9.002;2023-04-16T09:54:04;18.80;;;14.47;;
211;SDS011;16228;48.800;9.002;2023-04-16T09:56:51;20.57;;;15.67;;
211;SDS011;16228;48.800;9.002;2023-04-16T09:59:40;19.23;;;14.83;;
211;SDS011;16228;48.800;9.002;2023-04-16T10:02:26;23.37;;;16.83;;
211;SDS011;16228;48.800;9.002;2023-04-16T10:05:13;19.23;;;14.87;;
211;SDS011;16228;48.800;9.002;2023-04-16T10:08:01;22.40;;;15.53;;
211;SDS011;16228;48.800;9.002;2023-04-16T10:10:47;20.73;;;14.77;;
211;SDS011;16228;48.800;9.002;2023-04-16T10:13:34;20.30;;;14.33;;
211;SDS011;16228;48.800;9.002;2023-04-16T10:16:20;18.03;;;13.97;;
211;SDS011;16228;48.800;9.002;2023-04-16T10:19:06;20.33;;;15.10;;
211;SDS011;16228;48.800;9.002;2023-04-16T10:21:52;20.00;;;14.73;;
211;SDS011;16228;48.800;9.002;2023-04-16T10:24:38;21.87;;;14.80;;
211;SDS011;16228;48.800;9.002;2023-04-16T10:27:25;20.50;;;15.17;;
211;SDS011;16228;48.800;9.002;2023-04-16T10:30:14;24.07;;;15.40;;
211;SDS011;16228;48.800;9.002;2023-04-16T10:33:00;19.87;;;14.77;;
211;SDS011;16228;48.800;9.002;2023-04-16T10:35:48;19.13;;;13.93;;
211;SDS011;16228;48.800;9.002;2023-04-16T10:38:36;19.17;;;14.20;;
211;SDS011;16228;48.800;9.002;2023-04-16T10:41:24;16.53;;;13.13;;
211;SDS011;16228;48.800;9.002;2023-04-16T10:44:10;17.97;;;14.77;;
211;SDS011;16228;48.800;9.002;2023-04-16T10:46:58;20.47;;;14.20;;
211;SDS011;16228;48.800;9.002;2023-04-16T10:49:43;18.73;;;14.00;;
211;SDS011;16228;48.800;9.002;2023-04-16T10:52:31;17.00;;;12.43;;
211;SDS011;16228;48.800;9.002;2023-04-16T10:55:17;15.50;;;12.13;;
211;SDS011;16228;48.800;9.002;2023-04-16T10:58:13;15.43;;;11.30;;
211;SDS011;16228;48.800;9.002;2023-04-16T11:01:12;15.70;;;11.37;;
211;SDS011;16228;48.800;9.002;2023-04-16T11:04:00;16.00;;;12.07;;
211;SDS011;16228;48.800;9.002;2023-04-16T11:07:14;14.33;;;11.00;;
211;SDS011;16228;48.800;9.002;2023-04-16T11:10:05;11.27;;;9.97;;
211;SDS011;16228;48.800;9.002;2023-04-16T11:12:51;15.23;;;10.63;;
211;SDS011;16228;48.800;9.002;2023-04-16T11:15:38;11.13;;;9.30;;
211;SDS011;16228;48.800;9.002;2023-04-16T11:18:24;12.50;;;9.63;;
211;SDS011;16228;48.800;9.002;2023-04-16T11:21:12;10.90;;;9.07;;
211;SDS011;16228;48.800;9.002;2023-04-16T11:23:57;11.07;;;8.70;;
211;SDS011;16228;48.800;9.002;2023-04-16T11:26:43;10.77;;;7.57;;
211;SDS011;16228;48.800;9.002;2023-04-16T11:29:28;11.07;;;7.60;;
211;SDS011;16228;48.800;9.002;2023-04-16T11:32:19;7.70;;;6.80;;
211;SDS011;16228;48.800;9.002;2023-04-16T11:35:11;10.00;;;7.60;;
211;SDS011;16228;48.800;9.002;2023-04-16T11:37:59;8.47;;;7.30;;
211;SDS011;16228;48.800;9.002;2023-04-16T11:40:44;7.50;;;6.77;;
211;SDS011;16228;48.800;9.002;2023-04-16T11:43:34;6.87;;;6.17;;
211;SDS011;16228;48.800;9.002;2023-04-16T11:46:19;7.57;;;6.33;;
211;SDS011;16228;48.800;9.002;2023-04-16T11:49:05;6.97;;;6.00;;
211;SDS011;16228;48.800;9.002;2023-04-16T11:51:51;7.30;;;6.20;;
211;SDS011;16228;48.800;9.002;2023-04-16T11:54:39;7.27;;;6.13;;
211;SDS011;16228;48.800;9.002;2023-04-16T11:57:24;6.43;;;5.60;;
211;SDS011;16228;48.800;9.002;2023-04-16T12:00:12;5.60;;;5.00;;
211;SDS011;16228;48.800;9.002;2023-04-16T12:02:58;7.07;;;5.63;;
211;SDS011;16228;48.800;9.002;2023-04-16T12:05:44;6.73;;;5.70;;
211;SDS011;16228;48.800;9.002;2023-04-16T12:08:30;5.27;;;4.77;;
211;SDS011;16228;48.800;9.002;2023-04-16T12:11:16;5.67;;;5.00;;
211;SDS011;16228;48.800;9.002;2023-04-16T12:14:05;7.47;;;5.53;;
211;SDS011;16228;48.800;9.002;2023-04-16T12:16:52;5.30;;;4.80;;
211;SDS011;16228;48.800;9.002;2023-04-16T12:19:46;5.47;;;4.60;;
211;SDS011;16228;48.800;9.002;2023-04-16T12:22:33;5.57;;;5.07;;
211;SDS011;16228;48.800;9.002;2023-04-16T12:25:20;6.63;;;5.47;;
211;SDS011;16228;48.800;9.002;2023-04-16T12:28:10;5.30;;;4.73;;
211;SDS011;16228;48.800;9.002;2023-04-16T12:30:56;4.90;;;4.40;;
211;SDS011;16228;48.800;9.002;2023-04-16T12:33:41;5.83;;;4.90;;
211;SDS011;16228;48.800;9.002;2023-04-16T12:36:27;4.67;;;4.27;;
211;SDS011;16228;48.800;9.002;2023-04-16T12:39:14;5.20;;;4.70;;
211;SDS011;16228;48.800;9.002;2023-04-16T12:41:42;7.23;;;5.40;;
211;SDS011;16228;48.800;9.002;2023-04-16T12:44:11;5.80;;;5.20;;
211;SDS011;16228;48.800;9.002;2023-04-16T12:46:42;7.43;;;6.40;;
211;SDS011;16228;48.800;9.002;2023-04-16T12:49:10;6.50;;;5.80;;
211;SDS011;16228;48.800;9.002;2023-04-16T12:51:37;5.40;;;4.90;;
211;SDS011;16228;48.800;9.002;2023-04-16T12:54:05;6.13;;;5.53;;
211;SDS011;16228;48.800;9.002;2023-04-16T12:56:36;5.20;;;4.70;;
211;SDS011;16228;48.800;9.002;2023-04-16T12:59:03;5.97;;;5.03;;
211;SDS011;16228;48.800;9.002;2023-04-16T13:01:31;6.30;;;4.90;;
211;SDS011;16228;48.800;9.002;2023-04-16T13:04:01;6.27;;;4.90;;
211;SDS011;16228;48.800;9.002;2023-04-16T13:06:28;6.50;;;5.27;;
211;SDS011;16228;48.800;9.002;2023-04-16T13:08:56;4.50;;;4.10;;
211;SDS011;16228;48.800;9.002;2023-04-16T13:11:24;5.20;;;4.70;;
211;SDS011;16228;48.800;9.002;2023-04-16T13:13:51;4.67;;;3.97;;
211;SDS011;16228;48.800;9.002;2023-04-16T13:16:17;5.23;;;4.73;;
211;SDS011;16228;48.800;9.002;2023-04-16T13:18:46;6.20;;;5.53;;
211;SDS011;16228;48.800;9.002;2023-04-16T13:21:13;5.50;;;4.43;;
211;SDS011;16228;48.800;9.002;2023-04-16T13:23:40;5.73;;;4.83;;
211;SDS011;16228;48.800;9.002;2023-04-16T13:26:07;6.20;;;5.60;;
211;SDS011;16228;48.800;9.002;2023-04-16T13:28:34;6.50;;;5.70;;
211;SDS011;16228;48.800;9.002;2023-04-16T13:31:01;7.67;;;5.97;;
211;SDS011;16228;48.800;9.002;2023-04-16T13:33:28;6.77;;;6.07;;
211;SDS011;16228;48.800;9.002;2023-04-16T13:35:57;6.70;;;6.00;;
211;SDS011;16228;48.800;9.002;2023-04-16T13:38:26;5.50;;;4.83;;
211;SDS011;16228;48.800;9.002;2023-04-16T13:40:53;8.60;;;6.07;;
211;SDS011;16228;48.800;9.002;2023-04-16T13:43:20;7.87;;;7.03;;
211;SDS011;16228;48.800;9.002;2023-04-16T13:45:47;7.77;;;6.90;;
211;SDS011;16228;48.800;9.002;2023-04-16T13:48:14;8.27;;;6.73;;
211;SDS011;16228;48.800;9.002;2023-04-16T13:50:42;8.93;;;7.53;;
211;SDS011;16228;48.800;9.002;2023-04-16T13:53:10;8.13;;;6.67;;
211;SDS011;16228;48.800;9.002;2023-04-16T13:55:38;10.13;;;7.67;;
211;SDS011;16228;48.800;9.002;2023-04-16T13:58:05;8.87;;;6.80;;
211;SDS011;16228;48.800;9.002;2023-04-16T14:00:32;7.43;;;6.27;;
211;SDS011;16228;48.800;9.002;2023-04-16T14:03:00;9.37;;;7.20;;
211;SDS011;16228;48.800;9.002;2023-04-16T14:05:26;10.07;;;8.37;;
211;SDS011;16228;48.800;9.002;2023-04-16T14:07:53;9.23;;;8.17;;
211;SDS011;16228;48.800;9.002;2023-04-16T14:10:22;9.57;;;7.57;;
211;SDS011;16228;48.800;9.002;2023-04-16T14:12:49;9.97;;;7.93;;
211;SDS011;16228;48.800;9.002;2023-04-16T14:15:16;11.37;;;8.93;;
211;SDS011;16228;48.800;9.002;2023-04-16T14:17:43;8.47;;;7.57;;
211;SDS011;16228;48.800;9.002;2023-04-16T14:20:11;9.63;;;8.60;;
211;SDS011;16228;48.800;9.002;2023-04-16T14:22:38;11.77;;;10.57;;
211;SDS011;16228;48.800;9.002;2023-04-16T14:25:06;13.10;;;9.73;;
211;SDS011;16228;48.800;9.002;2023-04-16T14:27:35;11.50;;;9.17;;
211;SDS011;16228;48.800;9.002;2023-04-16T14:30:02;11.73;;;9.97;;
211;SDS011;16228;48.800;9.002;2023-04-16T14:32:30;9.53;;;8.50;;
211;SDS011;16228;48.800;9.002;2023-04-16T14:34:57;10.50;;;8.87;;
211;SDS011;16228;48.800;9.002;2023-04-16T14:37:24;11.23;;;9.13;;
211;SDS011;16228;48.800;9.002;2023-04-16T14:39:51;9.90;;;8.83;;
211;SDS011;16228;48.800;9.002;2023-04-16T14:42:18;15.33;;;11.37;;
211;SDS011;16228;48.800;9.002;2023-04-16T14:44:48;13.03;;;10.50;;
211;SDS011;16228;48.800;9.002;2023-04-16T14:47:16;12.73;;;11.30;;
211;SDS011;16228;48.800;9.002;2023-04-16T14:49:43;18.13;;;12.93;;
211;SDS011;16228;48.800;9.002;2023-04-16T14:52:10;14.03;;;11.07;;
211;SDS011;16228;48.800;9.002;2023-04-16T14:54:37;14.37;;;11.73;;
211;SDS011;16228;48.800;9.002;2023-04-16T14:57:04;16.50;;;12.93;;
211;SDS011;16228;48.800;9.002;2023-04-16T14:59:31;14.60;;;12.77;;
211;SDS011;16228;48.800;9.002;2023-04-16T15:01:59;15.60;;;12.03;;
211;SDS011;16228;48.800;9.002;2023-04-16T15:04:26;15.70;;;12.63;;
211;SDS011;16228;48.800;9.002;2023-04-16T15:06:54;16.23;;;13.17;;
211;SDS011;16228;48.800;9.002;2023-04-16T15:09:23;20.47;;;15.23;;
211;SDS011;16228;48.800;9.002;2023-04-16T15:11:50;21.13;;;15.67;;
211;SDS011;16228;48.800;9.002;2023-04-16T15:14:17;19.67;;;15.73;;
211;SDS011;16228;48.800;9.002;2023-04-16T15:16:45;22.73;;;17.83;;
211;SDS011;16228;48.800;9.002;2023-04-16T15:19:13;21.60;;;18.03;;
211;SDS011;16228;48.800;9.002;2023-04-16T15:21:41;22.17;;;16.23;;
211;SDS011;16228;48.800;9.002;2023-04-16T15:24:08;25.90;;;18.57;;
211;SDS011;16228;48.800;9.002;2023-04-16T15:26:36;17.97;;;14.67;;
211;SDS011;16228;48.800;9.002;2023-04-16T15:29:03;18.17;;;15.03;;
211;SDS011;16228;48.800;9.002;2023-04-16T15:31:30;21.47;;;16.53;;
211;SDS011;16228;48.800;9.002;2023-04-16T15:33:57;23.50;;;17.03;;
211;SDS011;16228;48.800;9.002;2023-04-16T15:36:26;23.77;;;17.50;;
211;SDS011;16228;48.800;9.002;2023-04-16T15:38:53;21.67;;;16.50;;
211;SDS011;16228;48.800;9.002;2023-04-16T15:41:20;23.30;;;17.70;;
211;SDS011;16228;48.800;9.002;2023-04-16T15:43:47;20.17;;;16.30;;
211;SDS011;16228;48.800;9.002;2023-04-16T15:46:14;19.37;;;15.23;;
211;SDS011;16228;48.800;9.002;2023-04-16T15:48:41;17.33;;;14.10;;
211;SDS011;16228;48.800;9.002;2023-04-16T15:51:08;14.37;;;12.83;;
211;SDS011;16228;48.800;9.002;2023-04-16T15:53:37;12.10;;;10.80;;
211;SDS011;16228;48.800;9.002;2023-04-16T15:56:04;14.40;;;12.00;;
211;SDS011;16228;48.800;9.002;2023-04-16T15:58:31;17.37;;;14.83;;
211;SDS011;16228;48.800;9.002;2023-04-16T16:00:58;17.03;;;13.43;;
211;SDS011;16228;48.800;9.002;2023-04-16T16:03:25;24.67;;;18.13;;
211;SDS011;16228;48.800;9.002;2023-04-16T16:05:52;26.33;;;17.70;;
211;SDS011;16228;48.800;9.002;2023-04-16T16:08:19;27.03;;;19.87;;
211;SDS011;16228;48.800;9.002;2023-04-16T16:10:48;27.97;;;20.87;;
211;SDS011;16228;48.800;9.002;2023-04-16T16:13:16;20.83;;;17.10;;
211;SDS011;16228;48.800;9.002;2023-04-16T16:15:43;20.70;;;16.70;;
211;SDS011;16228;48.800;9.002;2023-04-16T16:18:10;21.00;;;17.00;;
211;SDS011;16228;48.800;9.002;2023-04-16T16:20:37;25.70;;;20.43;;